createdAt,value
2017-12-21T00:00:17.274Z,1.80
2017-12-21T00:02:45.669Z,1.70
2017-12-21T00:05:14.832Z,1.80
2017-12-21T00:07:43.232Z,1.80
2017-12-21T00:10:12.443Z,1.80
2017-12-21T00:12:40.831Z,1.80
2017-12-21T00:15:10.002Z,1.80
2017-12-21T00:17:38.378Z,1.80
2017-12-21T00:20:06.765Z,1.90
2017-12-21T00:22:42.255Z,2.00
2017-12-21T00:25:10.647Z,1.90
2017-12-21T00:27:39.014Z,1.90
2017-12-21T00:30:07.559Z,1.80
2017-12-21T00:32:36.270Z,1.80
2017-12-21T00:35:04.650Z,1.70
2017-12-21T00:37:33.061Z,1.70
2017-12-21T00:40:01.442Z,1.80
2017-12-21T00:42:29.810Z,1.80
2017-12-21T00:44:58.221Z,1.70
2017-12-21T00:47:26.597Z,1.70
2017-12-21T00:49:54.986Z,1.60
2017-12-21T00:52:23.411Z,1.70
2017-12-21T00:54:51.782Z,1.70
2017-12-21T00:57:20.159Z,1.90
2017-12-21T00:59:48.565Z,1.80
2017-12-21T01:02:16.935Z,1.70
2017-12-21T01:04:45.326Z,1.70
2017-12-21T01:07:13.806Z,1.60
2017-12-21T01:09:42.178Z,1.60
2017-12-21T01:12:10.551Z,1.50
2017-12-21T01:14:38.971Z,1.60
2017-12-21T01:17:07.354Z,1.60
2017-12-21T01:19:35.753Z,1.60
2017-12-21T01:22:04.927Z,1.60
2017-12-21T01:24:33.334Z,1.60
2017-12-21T01:27:02.463Z,1.50
2017-12-21T01:29:30.874Z,1.50
2017-12-21T01:31:59.242Z,1.50
2017-12-21T01:34:27.614Z,1.50
2017-12-21T01:36:56.029Z,1.50
2017-12-21T01:39:24.416Z,1.50
2017-12-21T01:41:53.589Z,1.50
2017-12-21T01:44:22.018Z,1.50
2017-12-21T01:46:50.391Z,1.50
2017-12-21T01:49:18.787Z,1.50
2017-12-21T01:51:47.202Z,1.50
2017-12-21T01:54:15.600Z,1.50
2017-12-21T01:56:43.961Z,1.40
2017-12-21T01:59:12.379Z,1.40
2017-12-21T02:01:40.766Z,1.50
2017-12-21T02:04:09.134Z,1.50
2017-12-21T02:06:38.312Z,1.40
2017-12-21T02:09:07.452Z,1.40
2017-12-21T02:11:35.857Z,1.30
2017-12-21T02:14:04.273Z,1.40
2017-12-21T02:16:33.404Z,1.40
2017-12-21T02:19:01.796Z,1.30
2017-12-21T02:21:30.223Z,1.30
2017-12-21T02:23:59.372Z,1.40
2017-12-21T02:26:27.757Z,1.30
2017-12-21T02:28:56.179Z,1.40
2017-12-21T02:31:25.327Z,1.40
2017-12-21T02:33:53.706Z,1.40
2017-12-21T02:36:22.124Z,1.40
2017-12-21T02:38:50.498Z,1.50
2017-12-21T02:41:18.919Z,1.50
2017-12-21T02:43:47.340Z,1.40
2017-12-21T02:46:15.723Z,1.60
2017-12-21T02:48:45.647Z,1.70
2017-12-21T02:51:14.087Z,1.70
2017-12-21T02:53:42.457Z,1.70
2017-12-21T02:56:10.838Z,1.70
2017-12-21T02:58:39.324Z,1.60
2017-12-21T03:01:07.708Z,1.80
2017-12-21T03:03:36.085Z,1.70
2017-12-21T03:06:04.489Z,1.60
2017-12-21T03:08:32.910Z,1.60
2017-12-21T03:11:02.066Z,1.70
2017-12-21T03:13:30.514Z,1.70
2017-12-21T03:15:58.894Z,1.60
2017-12-21T03:18:27.268Z,1.60
2017-12-21T03:20:55.692Z,1.60
2017-12-21T03:23:24.082Z,1.60
2017-12-21T03:25:52.441Z,1.60
2017-12-21T03:28:20.849Z,1.70
2017-12-21T03:30:49.987Z,1.70
2017-12-21T03:33:18.378Z,1.70
2017-12-21T03:35:46.791Z,1.80
2017-12-21T03:38:15.215Z,1.80
2017-12-21T03:40:43.591Z,1.70
2017-12-21T03:43:12.010Z,1.60
2017-12-21T03:45:40.409Z,1.80
2017-12-21T03:48:08.785Z,1.80
2017-12-21T03:50:37.206Z,1.90
2017-12-21T03:53:05.583Z,1.70
2017-12-21T03:55:33.970Z,1.70
2017-12-21T03:58:02.441Z,1.60
2017-12-21T04:00:30.852Z,1.70
2017-12-21T04:02:59.236Z,1.70
2017-12-21T04:05:27.682Z,1.70
2017-12-21T04:07:56.062Z,1.70
2017-12-21T04:10:24.435Z,1.70
2017-12-21T04:12:52.860Z,1.60
2017-12-21T04:15:21.270Z,1.70
2017-12-21T04:17:50.482Z,1.60
2017-12-21T04:20:18.877Z,1.60
2017-12-21T04:22:47.250Z,1.80
2017-12-21T04:25:15.630Z,1.70
2017-12-21T04:27:44.081Z,1.70
2017-12-21T04:30:13.218Z,1.80
2017-12-21T04:32:41.635Z,1.80
2017-12-21T04:35:10.020Z,1.80
2017-12-21T04:37:38.401Z,1.80
2017-12-21T04:40:06.772Z,1.70
2017-12-21T04:42:35.187Z,1.70
2017-12-21T04:45:03.563Z,1.80
2017-12-21T04:47:31.934Z,1.80
2017-12-21T04:50:01.376Z,1.80
2017-12-21T04:52:29.766Z,1.80
2017-12-21T04:54:58.158Z,1.80
2017-12-21T04:57:26.579Z,1.80
2017-12-21T04:59:54.962Z,2.00
2017-12-21T05:02:23.335Z,2.10
2017-12-21T05:04:51.761Z,2.00
2017-12-21T05:07:20.132Z,1.90
2017-12-21T05:09:48.515Z,2.00
2017-12-21T05:12:16.945Z,2.00
2017-12-21T05:14:46.082Z,2.00
2017-12-21T05:17:14.463Z,2.00
2017-12-21T05:19:42.866Z,2.00
2017-12-21T05:22:11.324Z,2.00
2017-12-21T05:24:39.697Z,1.90
2017-12-21T05:27:08.134Z,1.90
2017-12-21T05:29:37.286Z,1.90
2017-12-21T05:32:05.995Z,1.90
2017-12-21T05:34:34.424Z,2.00
2017-12-21T05:37:02.801Z,1.90
2017-12-21T05:39:31.176Z,2.00
2017-12-21T05:41:59.576Z,2.00
2017-12-21T05:44:27.958Z,2.00
2017-12-21T05:46:56.331Z,2.00
2017-12-21T05:49:24.726Z,2.10
2017-12-21T05:51:53.210Z,2.20
2017-12-21T05:54:21.603Z,2.10
2017-12-21T05:56:50.024Z,2.10
2017-12-21T05:59:18.400Z,2.20
2017-12-21T06:01:46.782Z,2.00
2017-12-21T06:04:15.199Z,2.00
2017-12-21T06:06:43.580Z,1.90
2017-12-21T06:09:11.967Z,1.90
2017-12-21T06:11:40.382Z,1.90
2017-12-21T06:14:08.762Z,1.80
2017-12-21T06:16:37.911Z,1.80
2017-12-21T06:19:06.308Z,1.70
2017-12-21T06:21:34.679Z,1.90
2017-12-21T06:24:03.107Z,2.00
2017-12-21T06:26:31.501Z,2.00
2017-12-21T06:28:59.869Z,2.00
2017-12-21T06:31:28.234Z,1.90
2017-12-21T06:33:56.649Z,1.80
2017-12-21T06:36:25.031Z,1.80
2017-12-21T06:38:53.414Z,1.90
2017-12-21T06:41:21.829Z,1.90
2017-12-21T06:43:50.966Z,1.80
2017-12-21T06:46:19.337Z,1.80
2017-12-21T06:48:47.742Z,1.90
2017-12-21T06:51:16.125Z,2.00
2017-12-21T06:53:44.502Z,1.90
2017-12-21T06:56:12.958Z,1.90
2017-12-21T06:58:41.330Z,1.80
2017-12-21T07:01:09.703Z,1.70
2017-12-21T07:03:38.107Z,1.80
2017-12-21T07:06:06.487Z,1.80
2017-12-21T07:08:34.865Z,1.90
2017-12-21T07:11:03.266Z,1.90
2017-12-21T07:13:31.645Z,1.90
2017-12-21T07:16:00.018Z,1.70
2017-12-21T07:18:28.432Z,1.70
2017-12-21T07:20:57.566Z,1.60
2017-12-21T07:23:25.954Z,1.60
2017-12-21T07:25:54.367Z,1.60
2017-12-21T07:28:22.745Z,1.70
2017-12-21T07:30:51.130Z,1.70
2017-12-21T07:33:19.534Z,1.70
2017-12-21T07:35:47.922Z,1.70
2017-12-21T07:38:16.312Z,1.80
2017-12-21T07:40:44.715Z,2.00
2017-12-21T07:43:13.116Z,2.00
2017-12-21T07:45:41.485Z,1.90
2017-12-21T07:48:09.916Z,2.00
2017-12-21T07:50:38.296Z,2.00
2017-12-21T07:53:06.662Z,1.90
2017-12-21T07:55:35.076Z,2.00
2017-12-21T07:58:03.459Z,1.90
2017-12-21T08:00:31.823Z,1.90
2017-12-21T08:03:00.322Z,2.00
2017-12-21T08:05:29.621Z,2.00
2017-12-21T08:07:58.000Z,2.00
2017-12-21T08:10:26.419Z,2.10
2017-12-21T08:12:55.555Z,2.20
2017-12-21T08:15:23.937Z,2.20
2017-12-21T08:17:52.413Z,2.20
2017-12-21T08:20:20.836Z,2.20
2017-12-21T08:22:49.209Z,2.10
2017-12-21T08:25:17.626Z,2.30
2017-12-21T08:27:46.781Z,2.50
2017-12-21T08:30:15.147Z,2.50
2017-12-21T08:32:43.585Z,2.40
2017-12-21T08:35:11.950Z,2.40
2017-12-21T08:37:41.082Z,2.50
2017-12-21T08:40:09.498Z,2.40
2017-12-21T08:42:37.862Z,2.60
2017-12-21T08:45:06.251Z,2.70
2017-12-21T08:47:34.795Z,2.90
2017-12-21T08:50:03.166Z,2.90
2017-12-21T08:52:31.538Z,2.90
2017-12-21T08:54:59.953Z,2.90
2017-12-21T08:57:28.312Z,2.90
2017-12-21T08:59:56.680Z,3.00
2017-12-21T09:02:25.086Z,2.90
2017-12-21T09:04:53.458Z,2.90
2017-12-21T09:07:21.826Z,3.00
2017-12-21T09:09:50.238Z,3.10
2017-12-21T09:12:18.615Z,3.10
2017-12-21T09:14:46.999Z,3.30
2017-12-21T09:17:15.399Z,3.10
2017-12-21T09:19:44.535Z,3.10
2017-12-21T09:22:12.894Z,3.10
2017-12-21T09:24:41.434Z,3.30
2017-12-21T09:27:09.799Z,3.30
2017-12-21T09:29:38.951Z,3.10
2017-12-21T09:32:07.361Z,3.20
2017-12-21T09:34:35.719Z,3.20
2017-12-21T09:37:04.086Z,3.20
2017-12-21T09:39:32.517Z,3.20
2017-12-21T09:42:00.893Z,3.20
2017-12-21T09:44:29.260Z,3.30
2017-12-21T09:46:57.655Z,3.30
2017-12-21T09:49:26.785Z,3.30
2017-12-21T09:51:55.922Z,3.30
2017-12-21T09:54:24.323Z,3.30
2017-12-21T09:56:52.713Z,3.30
2017-12-21T09:59:21.083Z,3.30
2017-12-21T10:01:49.502Z,3.30
2017-12-21T10:04:18.635Z,3.40
2017-12-21T10:06:47.011Z,3.30
2017-12-21T10:09:15.416Z,3.40
2017-12-21T10:11:43.796Z,3.40
2017-12-21T10:14:12.175Z,3.40
2017-12-21T10:16:40.612Z,3.40
2017-12-21T10:19:08.973Z,3.40
2017-12-21T10:21:38.107Z,3.50
2017-12-21T10:24:06.519Z,3.50
2017-12-21T10:26:34.906Z,3.60
2017-12-21T10:29:04.036Z,3.80
2017-12-21T10:31:32.468Z,3.80
2017-12-21T10:34:00.836Z,3.80
2017-12-21T10:36:29.200Z,3.90
2017-12-21T10:38:57.593Z,4.10
2017-12-21T10:41:25.965Z,4.30
2017-12-21T10:43:54.334Z,4.30
2017-12-21T10:46:22.825Z,4.40
2017-12-21T10:48:51.194Z,4.50
2017-12-21T10:51:19.581Z,4.40
2017-12-21T10:53:47.977Z,4.40
2017-12-21T10:56:16.343Z,4.50
2017-12-21T10:58:44.722Z,4.40
2017-12-21T11:01:13.125Z,4.50
2017-12-21T11:03:42.262Z,4.60
2017-12-21T11:06:10.668Z,4.60
2017-12-21T11:08:39.446Z,4.60
2017-12-21T11:11:07.844Z,4.70
2017-12-21T11:13:36.218Z,4.70
2017-12-21T11:16:04.624Z,4.70
2017-12-21T11:18:32.989Z,4.80
2017-12-21T11:21:01.350Z,4.90
2017-12-21T11:23:29.756Z,5.00
2017-12-21T11:25:58.944Z,5.20
2017-12-21T11:28:27.308Z,5.20
2017-12-21T11:30:55.733Z,5.20
2017-12-21T11:33:24.111Z,5.20
2017-12-21T11:35:52.518Z,5.10
2017-12-21T11:38:20.932Z,5.20
2017-12-21T11:40:49.306Z,5.20
2017-12-21T11:43:17.696Z,5.20
2017-12-21T11:45:46.104Z,5.20
2017-12-21T11:48:14.481Z,5.20
2017-12-21T11:50:42.864Z,5.10
2017-12-21T11:53:11.296Z,5.00
2017-12-21T11:55:39.681Z,5.00
2017-12-21T11:58:08.048Z,5.00
2017-12-21T12:00:37.251Z,4.90
2017-12-21T12:03:05.639Z,4.90
2017-12-21T12:05:34.009Z,4.80
2017-12-21T12:08:02.466Z,4.90
2017-12-21T12:10:30.839Z,4.90
2017-12-21T12:12:59.228Z,4.90
2017-12-21T12:15:27.673Z,4.90
2017-12-21T12:17:56.054Z,4.90
2017-12-21T12:20:24.427Z,4.90
2017-12-21T12:22:52.854Z,4.90
2017-12-21T12:25:21.224Z,4.90
2017-12-21T12:27:49.602Z,4.80
2017-12-21T12:30:17.994Z,4.80
2017-12-21T12:32:47.141Z,4.80
2017-12-21T12:35:15.502Z,4.80
2017-12-21T12:37:44.698Z,4.80
2017-12-21T12:40:13.827Z,4.80
2017-12-21T12:42:42.200Z,4.80
2017-12-21T12:45:10.799Z,4.80
2017-12-21T12:47:39.182Z,4.90
2017-12-21T12:50:07.547Z,4.90
2017-12-21T12:52:35.957Z,4.80
2017-12-21T12:55:04.326Z,4.80
2017-12-21T12:57:32.692Z,4.80
2017-12-21T13:00:01.097Z,4.80
2017-12-21T13:02:29.467Z,4.80
2017-12-21T13:04:57.848Z,4.90
2017-12-21T13:07:26.241Z,4.90
2017-12-21T13:09:54.604Z,4.90
2017-12-21T13:12:23.743Z,4.90
2017-12-21T13:14:52.930Z,4.90
2017-12-21T13:17:22.085Z,4.80
2017-12-21T13:19:50.476Z,4.80
2017-12-21T13:22:18.982Z,4.60
2017-12-21T13:24:47.384Z,4.60
2017-12-21T13:27:15.957Z,4.50
2017-12-21T13:29:45.256Z,4.30
2017-12-21T13:32:14.862Z,4.20
2017-12-21T13:34:45.235Z,4.20
2017-12-21T13:37:14.386Z,4.20
2017-12-21T13:39:43.724Z,4.20
2017-12-21T13:42:12.238Z,4.20
2017-12-21T13:44:41.137Z,4.20
2017-12-21T13:47:09.894Z,4.20
2017-12-21T13:49:38.431Z,4.10
2017-12-21T13:52:07.168Z,4.10
2017-12-21T13:54:35.608Z,4.20
2017-12-21T13:57:04.418Z,4.20
2017-12-21T13:59:33.103Z,4.20
2017-12-21T14:02:01.728Z,4.20
2017-12-21T14:04:30.323Z,4.20
2017-12-21T14:06:58.791Z,4.20
2017-12-21T14:09:27.413Z,4.30
2017-12-21T14:11:56.025Z,4.20
2017-12-21T14:14:24.600Z,4.20
2017-12-21T14:16:54.190Z,4.20
2017-12-21T14:19:22.857Z,4.20
2017-12-21T14:21:52.181Z,4.20
2017-12-21T14:24:21.083Z,4.20
2017-12-21T14:26:49.506Z,4.20
2017-12-21T14:29:18.150Z,4.20
2017-12-21T14:31:46.751Z,4.10
2017-12-21T14:34:15.114Z,4.10
2017-12-21T14:36:43.510Z,4.10
2017-12-21T14:39:11.894Z,4.10
2017-12-21T14:41:40.273Z,4.10
2017-12-21T14:44:08.675Z,4.10
2017-12-21T14:46:37.055Z,4.00
2017-12-21T14:49:05.415Z,4.00
2017-12-21T14:51:33.854Z,4.00
2017-12-21T14:54:02.284Z,3.90
2017-12-21T14:56:30.661Z,3.90
2017-12-21T14:58:59.216Z,3.90
2017-12-21T15:01:28.496Z,3.90
2017-12-21T15:03:57.240Z,3.90
2017-12-21T15:06:26.604Z,3.80
2017-12-21T15:08:55.379Z,3.80
2017-12-21T15:11:24.154Z,3.80
2017-12-21T15:13:52.827Z,3.80
2017-12-21T15:16:21.584Z,3.70
2017-12-21T15:18:51.437Z,3.70
2017-12-21T15:21:20.648Z,3.70
2017-12-21T15:23:49.340Z,3.70
2017-12-21T15:26:18.047Z,3.70
2017-12-21T15:28:46.489Z,3.70
2017-12-21T15:31:14.928Z,3.70
2017-12-21T15:33:43.297Z,3.70
2017-12-21T15:36:11.786Z,3.70
2017-12-21T15:38:40.196Z,3.70
2017-12-21T15:41:08.617Z,3.60
2017-12-21T15:43:37.337Z,3.60
2017-12-21T15:46:05.721Z,3.60
2017-12-21T15:48:34.098Z,3.60
2017-12-21T15:51:03.439Z,3.70
2017-12-21T15:53:31.835Z,3.70
2017-12-21T15:56:00.252Z,3.70
2017-12-21T15:58:28.730Z,3.70
2017-12-21T16:00:57.106Z,3.70
2017-12-21T16:03:25.801Z,3.60
2017-12-21T16:05:54.631Z,3.60
2017-12-21T16:08:23.423Z,3.60
2017-12-21T16:10:52.007Z,3.60
2017-12-21T16:13:20.816Z,3.50
2017-12-21T16:15:49.341Z,3.60
2017-12-21T16:18:18.048Z,3.60
2017-12-21T16:20:46.561Z,3.50
2017-12-21T16:23:15.011Z,3.50
2017-12-21T16:25:43.523Z,3.50
2017-12-21T16:28:12.159Z,3.50
2017-12-21T16:30:41.612Z,3.40
2017-12-21T16:33:10.108Z,3.40
2017-12-21T16:35:38.566Z,3.50
2017-12-21T16:38:07.218Z,3.40
2017-12-21T16:40:35.600Z,3.40
2017-12-21T16:43:04.060Z,3.40
2017-12-21T16:45:33.443Z,3.40
2017-12-21T16:48:02.988Z,3.50
2017-12-21T16:50:31.925Z,3.40
2017-12-21T16:53:00.802Z,3.50
2017-12-21T16:55:30.060Z,3.50
2017-12-21T16:57:58.850Z,3.40
2017-12-21T17:00:27.585Z,3.50
2017-12-21T17:02:56.379Z,3.50
2017-12-21T17:05:25.306Z,3.50
2017-12-21T17:07:54.381Z,3.50
2017-12-21T17:10:23.985Z,3.50
2017-12-21T17:12:53.441Z,3.50
2017-12-21T17:15:21.820Z,3.50
2017-12-21T17:17:50.315Z,3.50
2017-12-21T17:20:18.755Z,3.50
2017-12-21T17:22:47.249Z,3.50
2017-12-21T17:25:15.621Z,3.50
2017-12-21T17:27:44.062Z,3.50
2017-12-21T17:30:12.613Z,3.50
2017-12-21T17:32:41.000Z,3.50
2017-12-21T17:35:09.508Z,3.50
2017-12-21T17:37:37.878Z,3.40
2017-12-21T17:40:06.263Z,3.50
2017-12-21T17:42:34.746Z,3.50
2017-12-21T17:45:03.220Z,3.50
2017-12-21T17:47:32.853Z,3.50
2017-12-21T17:50:02.285Z,3.50
2017-12-21T17:52:30.659Z,3.50
2017-12-21T17:54:59.339Z,3.50
2017-12-21T17:57:28.602Z,3.50
2017-12-21T17:59:57.274Z,3.50
2017-12-21T18:02:26.935Z,3.50
2017-12-21T18:04:55.643Z,3.50
2017-12-21T18:07:24.288Z,3.50
2017-12-21T18:09:53.872Z,3.50
2017-12-21T18:12:23.616Z,3.50
2017-12-21T18:14:52.348Z,3.50
2017-12-21T18:17:20.923Z,3.50
2017-12-21T18:19:49.895Z,3.50
2017-12-21T18:22:21.001Z,3.50
2017-12-21T18:24:49.901Z,3.50
2017-12-21T18:27:18.623Z,3.50
2017-12-21T18:29:47.372Z,3.50
2017-12-21T18:32:16.543Z,3.50
2017-12-21T18:34:45.764Z,3.50
2017-12-21T18:37:14.927Z,3.50
2017-12-21T18:39:43.593Z,3.50
2017-12-21T18:42:12.041Z,3.50
2017-12-21T18:44:40.541Z,3.60
2017-12-21T18:47:08.998Z,3.60
2017-12-21T18:49:37.720Z,3.60
2017-12-21T18:52:06.436Z,3.60
2017-12-21T18:54:35.661Z,3.60
2017-12-21T18:57:05.309Z,3.60
2017-12-21T18:59:33.891Z,3.60
2017-12-21T19:02:02.406Z,3.60
2017-12-21T19:04:31.178Z,3.60
2017-12-21T19:06:59.968Z,3.60
2017-12-21T19:09:29.636Z,3.60
2017-12-21T19:11:58.373Z,3.60
2017-12-21T19:14:26.798Z,3.70
2017-12-21T19:16:55.163Z,3.70
2017-12-21T19:19:24.670Z,3.60
2017-12-21T19:21:53.069Z,3.60
2017-12-21T19:24:21.468Z,3.60
2017-12-21T19:26:49.958Z,3.70
2017-12-21T19:29:18.380Z,3.70
2017-12-21T19:31:47.551Z,3.70
2017-12-21T19:34:16.779Z,3.70
2017-12-21T19:36:46.103Z,3.60
2017-12-21T19:39:14.607Z,3.70
2017-12-21T19:41:43.578Z,3.70
2017-12-21T19:44:11.972Z,3.70
2017-12-21T19:46:40.340Z,3.70
2017-12-21T19:49:08.963Z,3.70
2017-12-21T19:51:37.398Z,3.70
2017-12-21T19:54:06.243Z,3.70
2017-12-21T19:56:35.540Z,3.70
2017-12-21T19:59:04.385Z,3.70
2017-12-21T20:01:33.019Z,3.80
2017-12-21T20:04:01.977Z,3.80
2017-12-21T20:06:31.721Z,3.80
2017-12-21T20:09:00.453Z,3.80
2017-12-21T20:11:29.254Z,3.80
2017-12-21T20:13:57.741Z,3.80
2017-12-21T20:16:26.410Z,3.80
2017-12-21T20:18:55.343Z,3.80
2017-12-21T20:21:24.169Z,3.80
2017-12-21T20:23:52.947Z,3.80
2017-12-21T20:26:21.846Z,3.80
2017-12-21T20:28:50.580Z,3.80
2017-12-21T20:31:19.316Z,3.90
2017-12-21T20:33:48.253Z,3.90
2017-12-21T20:36:16.814Z,3.90
2017-12-21T20:38:45.584Z,3.90
2017-12-21T20:41:14.437Z,3.90
2017-12-21T20:43:43.834Z,3.90
2017-12-21T20:46:12.648Z,3.90
2017-12-21T20:48:42.036Z,3.90
2017-12-21T20:51:10.676Z,3.90
2017-12-21T20:53:39.290Z,3.90
2017-12-21T20:56:07.764Z,3.90
2017-12-21T20:58:36.174Z,3.90
2017-12-21T21:01:04.610Z,3.90
2017-12-21T21:03:33.220Z,3.80
2017-12-21T21:06:01.656Z,3.80
2017-12-21T21:08:30.118Z,3.80
2017-12-21T21:10:59.389Z,3.80
2017-12-21T21:13:27.762Z,3.80
2017-12-21T21:15:56.133Z,3.90
2017-12-21T21:18:24.629Z,3.80
2017-12-21T21:20:53.071Z,3.80
2017-12-21T21:23:21.438Z,3.80
2017-12-21T21:25:49.867Z,3.90
2017-12-21T21:28:18.240Z,3.80
2017-12-21T21:30:47.533Z,3.80
2017-12-21T21:33:17.371Z,3.90
2017-12-21T21:35:46.596Z,3.80
2017-12-21T21:38:15.040Z,3.80
2017-12-21T21:40:44.419Z,3.90
2017-12-21T21:43:13.771Z,3.80
2017-12-21T21:45:42.436Z,3.80
2017-12-21T21:48:11.910Z,3.90
2017-12-21T21:50:40.346Z,3.90
2017-12-21T21:53:08.714Z,3.90
2017-12-21T21:55:37.149Z,3.90
2017-12-21T21:58:05.525Z,3.90
2017-12-21T22:00:33.909Z,3.90
2017-12-21T22:03:02.667Z,3.90
2017-12-21T22:05:31.091Z,3.90
2017-12-21T22:07:59.461Z,4.00
2017-12-21T22:10:28.204Z,4.00
2017-12-21T22:12:56.627Z,4.00
2017-12-21T22:15:25.107Z,4.00
2017-12-21T22:17:53.513Z,4.00
2017-12-21T22:20:22.657Z,4.00
2017-12-21T22:22:51.039Z,4.00
2017-12-21T22:25:19.449Z,4.00
2017-12-21T22:27:48.590Z,4.00
2017-12-21T22:30:16.978Z,4.00
2017-12-21T22:32:45.390Z,4.10
2017-12-21T22:35:13.783Z,4.10
2017-12-21T22:37:42.171Z,4.10
2017-12-21T22:40:11.378Z,4.10
2017-12-21T22:42:40.526Z,4.10
2017-12-21T22:45:08.912Z,4.10
2017-12-21T22:47:38.250Z,4.10
2017-12-21T22:50:07.393Z,4.10
2017-12-21T22:52:35.842Z,4.10
2017-12-21T22:55:04.245Z,4.10
2017-12-21T22:57:32.615Z,4.10
2017-12-21T23:00:00.982Z,4.10
2017-12-21T23:02:29.391Z,4.10
2017-12-21T23:04:57.762Z,4.10
2017-12-21T23:07:26.162Z,4.10
2017-12-21T23:09:54.562Z,4.10
2017-12-21T23:12:22.944Z,4.10
2017-12-21T23:14:52.084Z,4.10
2017-12-21T23:17:20.479Z,4.10
2017-12-21T23:19:48.865Z,4.10
2017-12-21T23:22:17.229Z,4.10
2017-12-21T23:24:47.482Z,4.10
2017-12-21T23:27:15.857Z,4.10
2017-12-21T23:29:44.247Z,4.10
2017-12-21T23:32:13.429Z,4.10
2017-12-21T23:34:41.810Z,4.10
2017-12-21T23:37:10.190Z,4.10
2017-12-21T23:39:38.607Z,4.10
2017-12-21T23:42:06.987Z,4.20
2017-12-21T23:44:35.358Z,4.10
2017-12-21T23:47:04.569Z,4.20
2017-12-21T23:49:32.942Z,4.20
2017-12-21T23:52:01.334Z,4.20
2017-12-21T23:54:29.772Z,4.20
2017-12-21T23:56:58.930Z,4.20
2017-12-21T23:59:27.309Z,4.20
